createdAt,value
2019-03-02T00:00:48.450Z,91.39
2019-03-02T00:03:51.610Z,90.60
2019-03-02T00:06:54.786Z,91.17
2019-03-02T00:09:58.003Z,90.60
2019-03-02T00:13:03.971Z,91.43
2019-03-02T00:16:07.511Z,91.56
2019-03-02T00:19:07.953Z,91.20
2019-03-02T00:22:10.977Z,90.79
2019-03-02T00:25:14.167Z,90.10
2019-03-02T00:28:17.367Z,91.17
2019-03-02T00:31:20.558Z,90.39
2019-03-02T00:34:23.743Z,90.59
2019-03-02T00:37:29.579Z,90.54
2019-03-02T00:40:30.415Z,89.14
2019-03-02T00:43:33.234Z,89.88
2019-03-02T00:46:36.431Z,90.25
2019-03-02T00:49:39.620Z,89.81
2019-03-02T00:52:42.814Z,90.29
2019-03-02T00:55:46.018Z,90.08
2019-03-02T00:58:49.191Z,89.65
2019-03-02T01:01:52.291Z,88.92
2019-03-02T01:04:57.860Z,89.18
2019-03-02T01:07:59.783Z,89.98
2019-03-02T01:11:01.679Z,90.11
2019-03-02T01:14:04.904Z,90.01
2019-03-02T01:17:08.063Z,89.63
2019-03-02T01:20:12.290Z,89.05
2019-03-02T01:23:15.479Z,89.38
2019-03-02T01:26:20.538Z,89.65
2019-03-02T01:29:21.760Z,89.27
2019-03-02T01:32:24.963Z,90.02
2019-03-02T01:35:28.071Z,90.50
2019-03-02T01:38:31.244Z,90.72
2019-03-02T01:41:34.347Z,90.64
2019-03-02T01:44:37.535Z,90.57
2019-03-02T01:47:40.726Z,91.10
2019-03-02T01:50:47.622Z,91.55
2019-03-02T01:53:47.134Z,92.13
2019-03-02T01:56:50.310Z,91.91
2019-03-02T01:59:53.497Z,91.42
2019-03-02T02:02:56.699Z,92.07
2019-03-02T02:05:59.892Z,93.06
2019-03-02T02:09:05.762Z,92.83
2019-03-02T02:12:07.202Z,92.83
2019-03-02T02:15:12.918Z,93.09
2019-03-02T02:18:16.051Z,92.93
2019-03-02T02:21:19.247Z,92.94
2019-03-02T02:24:24.925Z,93.47
2019-03-02T02:27:25.631Z,93.67
2019-03-02T02:30:28.745Z,93.30
2019-03-02T02:33:31.920Z,93.14
2019-03-02T02:36:35.029Z,93.87
2019-03-02T02:39:38.103Z,94.20
2019-03-02T02:42:43.311Z,93.88
2019-03-02T02:45:49.053Z,93.97
2019-03-02T02:48:47.684Z,93.46
2019-03-02T02:51:51.539Z,93.48
2019-03-02T02:54:57.597Z,93.37
2019-03-02T02:57:57.881Z,93.09
2019-03-02T03:01:01.077Z,93.71
2019-03-02T03:04:04.283Z,94.09
2019-03-02T03:07:12.508Z,94.57
2019-03-02T03:10:18.058Z,94.07
2019-03-02T03:13:21.235Z,94.05
2019-03-02T03:16:24.426Z,94.83
2019-03-02T03:19:31.118Z,94.96
2019-03-02T03:22:31.463Z,94.66
2019-03-02T03:25:34.627Z,94.05
2019-03-02T03:28:37.832Z,92.56
2019-03-02T03:31:41.010Z,92.62
2019-03-02T03:34:44.201Z,92.50
2019-03-02T03:37:51.238Z,91.89
2019-03-02T03:40:50.608Z,90.93
2019-03-02T03:43:53.795Z,90.97
2019-03-02T03:47:00.765Z,90.83
2019-03-02T03:50:00.226Z,90.55
2019-03-02T03:53:03.256Z,90.92
2019-03-02T03:56:06.361Z,90.77
2019-03-02T03:59:14.063Z,90.34
2019-03-02T04:02:12.756Z,90.64
2019-03-02T04:05:15.962Z,90.55
2019-03-02T04:08:19.132Z,91.29
2019-03-02T04:11:22.248Z,90.95
2019-03-02T04:14:25.419Z,90.69
2019-03-02T04:17:28.513Z,90.89
2019-03-02T04:20:35.299Z,91.05
2019-03-02T04:23:38.488Z,90.84
2019-03-02T04:26:41.671Z,90.52
2019-03-02T04:29:50.213Z,90.05
2019-03-02T04:32:47.967Z,90.26
2019-03-02T04:35:51.172Z,90.27
2019-03-02T04:38:54.361Z,89.99
2019-03-02T04:41:57.555Z,89.96
2019-03-02T04:45:01.716Z,89.62
2019-03-02T04:48:04.720Z,89.70
2019-03-02T04:51:07.047Z,88.88
2019-03-02T04:54:10.134Z,88.88
2019-03-02T04:57:13.375Z,88.52
2019-03-02T05:00:16.629Z,88.22
2019-03-02T05:03:19.837Z,88.14
2019-03-02T05:06:23.007Z,88.24
2019-03-02T05:09:26.211Z,88.13
2019-03-02T05:12:29.326Z,88.28
2019-03-02T05:15:32.480Z,88.29
2019-03-02T05:18:35.684Z,88.39
2019-03-02T05:21:39.809Z,88.79
2019-03-02T05:24:43.573Z,88.58
2019-03-02T05:27:45.262Z,88.20
2019-03-02T05:30:48.358Z,87.90
2019-03-02T05:33:51.558Z,88.06
2019-03-02T05:36:54.731Z,88.13
2019-03-02T05:39:57.827Z,88.41
2019-03-02T05:43:01.015Z,88.90
2019-03-02T05:46:04.116Z,88.74
2019-03-02T05:49:07.315Z,88.82
2019-03-02T05:52:10.507Z,89.36
2019-03-02T05:55:18.017Z,89.52
2019-03-02T05:58:17.167Z,89.33
2019-03-02T06:01:20.091Z,89.62
2019-03-02T06:04:23.287Z,89.54
2019-03-02T06:07:26.491Z,90.17
2019-03-02T06:10:29.672Z,90.25
2019-03-02T06:13:32.778Z,90.07
2019-03-02T06:16:35.967Z,90.27
2019-03-02T06:19:39.067Z,90.82
2019-03-02T06:22:42.286Z,91.16
2019-03-02T06:25:45.540Z,91.50
2019-03-02T06:28:48.762Z,91.18
2019-03-02T06:31:53.959Z,91.55
2019-03-02T06:34:57.068Z,91.93
2019-03-02T06:37:59.351Z,91.92
2019-03-02T06:41:02.564Z,92.30
2019-03-02T06:44:05.743Z,92.65
2019-03-02T06:47:08.975Z,93.31
2019-03-02T06:50:12.553Z,93.62
2019-03-02T06:53:15.831Z,93.44
2019-03-02T06:56:19.098Z,93.53
2019-03-02T06:59:22.375Z,93.81
2019-03-02T07:02:25.524Z,94.53
2019-03-02T07:05:29.832Z,94.44
2019-03-02T07:08:32.762Z,95.16
2019-03-02T07:11:35.152Z,95.56
2019-03-02T07:14:38.400Z,95.31
2019-03-02T07:17:50.836Z,95.46
2019-03-02T07:20:54.111Z,95.49
2019-03-02T07:23:57.316Z,96.07
2019-03-02T07:27:00.966Z,96.11
2019-03-02T07:30:04.620Z,95.72
2019-03-02T07:33:07.918Z,95.68
2019-03-02T07:36:10.918Z,95.53
2019-03-02T07:39:14.057Z,95.57
2019-03-02T07:42:17.310Z,95.72
2019-03-02T07:45:20.508Z,95.64
2019-03-02T07:48:23.683Z,95.38
2019-03-02T07:51:26.889Z,94.69
2019-03-02T07:54:30.111Z,95.26
2019-03-02T07:57:33.273Z,95.41
2019-03-02T08:00:37.881Z,95.60
2019-03-02T08:03:39.682Z,94.84
2019-03-02T08:06:42.872Z,94.93
2019-03-02T08:09:46.043Z,94.05
2019-03-02T08:12:49.263Z,94.20
2019-03-02T08:15:52.472Z,94.34
2019-03-02T08:18:55.747Z,93.96
2019-03-02T08:21:58.939Z,93.65
2019-03-02T08:25:02.138Z,93.14
2019-03-02T08:28:06.776Z,93.67
2019-03-02T08:31:08.993Z,93.32
2019-03-02T08:34:11.715Z,93.95
2019-03-02T08:37:16.534Z,93.15
2019-03-02T08:40:19.265Z,93.52
2019-03-02T08:43:21.205Z,93.41
2019-03-02T08:46:24.391Z,92.53
2019-03-02T08:49:27.677Z,92.62
2019-03-02T08:52:31.908Z,92.92
2019-03-02T08:55:35.135Z,92.07
2019-03-02T08:58:38.288Z,92.13
2019-03-02T09:01:41.587Z,92.23
2019-03-02T09:04:47.244Z,92.29
2019-03-02T09:07:48.079Z,91.64
2019-03-02T09:10:51.284Z,91.22
2019-03-02T09:13:54.503Z,90.61
2019-03-02T09:16:57.662Z,89.88
2019-03-02T09:20:01.005Z,89.79
2019-03-02T09:23:04.043Z,89.86
2019-03-02T09:26:07.352Z,89.13
2019-03-02T09:29:10.549Z,89.79
2019-03-02T09:32:14.158Z,89.72
2019-03-02T09:35:17.257Z,89.25
2019-03-02T09:38:20.959Z,89.91
2019-03-02T09:41:25.361Z,89.42
2019-03-02T09:44:26.467Z,89.31
2019-03-02T09:47:29.721Z,88.96
2019-03-02T09:50:32.907Z,88.66
2019-03-02T09:53:36.117Z,89.29
2019-03-02T09:56:39.287Z,90.85
2019-03-02T09:59:45.440Z,92.22
2019-03-02T10:02:46.420Z,91.58
2019-03-02T10:05:49.868Z,93.08
2019-03-02T10:08:51.849Z,93.70
2019-03-02T10:11:55.146Z,93.91
2019-03-02T10:15:00.769Z,94.06
2019-03-02T10:18:01.556Z,94.08
2019-03-02T10:21:04.839Z,94.10
2019-03-02T10:24:08.059Z,93.94
2019-03-02T10:27:11.251Z,93.16
2019-03-02T10:30:16.141Z,93.10
2019-03-02T10:33:19.255Z,93.29
2019-03-02T10:36:25.780Z,93.19
2019-03-02T10:39:29.082Z,92.97
2019-03-02T10:42:31.903Z,93.21
2019-03-02T10:45:33.664Z,92.21
2019-03-02T10:48:35.320Z,90.59
2019-03-02T10:51:38.731Z,91.04
2019-03-02T10:54:41.931Z,90.97
2019-03-02T10:57:45.137Z,89.41
2019-03-02T11:00:48.308Z,89.18
2019-03-02T11:03:51.622Z,88.89
2019-03-02T11:07:00.988Z,88.13
2019-03-02T11:10:12.867Z,87.59
2019-03-02T11:13:51.866Z,87.89
2019-03-02T11:16:58.470Z,87.41
2019-03-02T11:20:07.115Z,87.04
2019-03-02T11:23:19.974Z,86.89
2019-03-02T11:26:26.561Z,86.94
2019-03-02T11:29:50.959Z,86.65
2019-03-02T11:32:56.969Z,85.00
2019-03-02T11:36:41.043Z,83.94
2019-03-02T11:40:50.382Z,82.84
2019-03-02T11:43:59.556Z,80.64
2019-03-02T11:47:06.939Z,78.46
2019-03-02T11:50:16.099Z,79.71
2019-03-02T11:53:24.181Z,78.53
2019-03-02T11:56:30.743Z,78.93
2019-03-02T11:59:42.119Z,78.70
2019-03-02T12:02:50.052Z,78.03
2019-03-02T12:06:05.768Z,76.29
2019-03-02T12:09:10.116Z,77.74
2019-03-02T12:12:51.249Z,77.60
2019-03-02T12:15:56.276Z,77.79
2019-03-02T12:19:05.375Z,77.58
2019-03-02T12:23:16.046Z,77.16
2019-03-02T12:26:30.323Z,76.85
2019-03-02T12:29:37.638Z,77.12
2019-03-02T12:32:54.679Z,78.03
2019-03-02T12:36:06.257Z,78.96
2019-03-02T12:39:13.619Z,78.55
2019-03-02T12:42:20.918Z,79.03
2019-03-02T12:47:36.002Z,78.96
2019-03-02T12:50:43.296Z,77.77
2019-03-02T12:54:04.395Z,76.96
2019-03-02T12:57:08.710Z,77.78
2019-03-02T13:00:22.337Z,77.81
2019-03-02T13:03:41.701Z,77.65
2019-03-02T13:08:53.149Z,77.41
2019-03-02T13:12:05.789Z,76.51
2019-03-02T13:15:11.252Z,76.21
2019-03-02T13:18:33.821Z,76.62
2019-03-02T13:21:43.007Z,76.95
2019-03-02T13:24:53.724Z,77.02
2019-03-02T13:28:02.275Z,76.67
2019-03-02T13:32:11.056Z,76.83
2019-03-02T13:35:23.427Z,77.03
2019-03-02T13:38:29.985Z,76.91
2019-03-02T13:42:36.909Z,77.40
2019-03-02T13:45:47.163Z,77.74
2019-03-02T13:49:01.668Z,77.44
2019-03-02T13:52:40.315Z,77.05
2019-03-02T13:55:49.469Z,77.25
2019-03-02T13:58:58.515Z,77.39
2019-03-02T14:02:07.164Z,76.27
2019-03-02T14:06:19.715Z,75.58
2019-03-02T14:09:35.123Z,73.58
2019-03-02T14:12:44.429Z,73.38
2019-03-02T14:16:24.229Z,73.18
2019-03-02T14:19:32.659Z,73.65
2019-03-02T14:22:49.015Z,74.33
2019-03-02T14:26:04.410Z,74.09
2019-03-02T14:29:12.252Z,73.49
2019-03-02T14:32:19.026Z,71.76
2019-03-02T14:35:28.243Z,70.74
2019-03-02T14:38:37.580Z,67.45
2019-03-02T14:41:48.861Z,68.07
2019-03-02T14:45:09.720Z,67.32
2019-03-02T14:49:17.586Z,67.05
2019-03-02T14:52:33.246Z,65.35
2019-03-02T14:55:50.232Z,64.76
2019-03-02T14:59:28.924Z,64.53
2019-03-02T15:03:09.781Z,63.67
2019-03-02T15:06:18.226Z,63.54
2019-03-02T15:09:25.625Z,64.11
2019-03-02T15:12:33.099Z,64.61
2019-03-02T15:15:44.567Z,65.19
2019-03-02T15:19:02.326Z,64.94
2019-03-02T15:22:08.267Z,65.89
2019-03-02T15:25:26.104Z,65.61
2019-03-02T15:28:33.995Z,65.66
2019-03-02T15:31:43.187Z,66.29
2019-03-02T15:34:50.099Z,66.99
2019-03-02T15:38:04.609Z,67.31
2019-03-02T15:41:09.191Z,67.52
2019-03-02T15:44:19.707Z,67.84
2019-03-02T15:47:30.980Z,68.69
2019-03-02T15:50:40.323Z,68.34
2019-03-02T15:53:56.534Z,68.83
2019-03-02T15:57:11.781Z,68.91
2019-03-02T16:00:21.435Z,68.77
2019-03-02T16:04:31.912Z,68.53
2019-03-02T16:07:54.348Z,68.71
2019-03-02T16:11:02.214Z,69.17
2019-03-02T16:14:11.710Z,69.01
2019-03-02T16:17:20.041Z,69.05
2019-03-02T16:20:28.617Z,69.21
2019-03-02T16:25:41.041Z,69.08
2019-03-02T16:28:48.058Z,67.46
2019-03-02T16:31:59.480Z,66.06
2019-03-02T16:35:40.423Z,65.98
2019-03-02T16:38:56.559Z,65.72
2019-03-02T16:42:12.642Z,65.13
2019-03-02T16:45:20.461Z,65.53
2019-03-02T16:48:29.003Z,66.00
2019-03-02T16:51:37.108Z,66.32
2019-03-02T16:54:52.366Z,66.39
2019-03-02T16:58:00.499Z,66.26
2019-03-02T17:01:08.674Z,66.28
2019-03-02T17:06:21.164Z,66.70
2019-03-02T17:09:59.984Z,67.31
2019-03-02T17:13:15.450Z,68.28
2019-03-02T17:16:24.074Z,68.27
2019-03-02T17:19:33.548Z,69.00
2019-03-02T17:22:41.799Z,69.30
2019-03-02T17:25:51.192Z,69.60
2019-03-02T17:29:03.630Z,70.08
2019-03-02T17:32:13.920Z,70.13
2019-03-02T17:35:35.601Z,70.55
2019-03-02T17:38:47.979Z,71.41
2019-03-02T17:41:56.154Z,71.69
2019-03-02T17:45:03.284Z,71.97
2019-03-02T17:48:11.411Z,72.03
2019-03-02T17:51:21.854Z,72.52
2019-03-02T17:56:37.152Z,72.61
2019-03-02T17:59:43.216Z,72.97
2019-03-02T18:02:55.947Z,72.88
2019-03-02T18:06:08.347Z,73.69
2019-03-02T18:09:16.928Z,74.05
2019-03-02T18:13:02.342Z,74.79
2019-03-02T18:16:22.428Z,75.60
2019-03-02T18:19:25.649Z,75.94
2019-03-02T18:22:28.761Z,76.35
2019-03-02T18:25:31.952Z,76.68
2019-03-02T18:28:35.159Z,77.12
2019-03-02T18:31:38.257Z,77.36
2019-03-02T18:34:41.418Z,77.78
2019-03-02T18:37:44.644Z,78.22
2019-03-02T18:40:47.739Z,78.70
2019-03-02T18:43:51.032Z,79.14
2019-03-02T18:46:54.239Z,79.76
2019-03-02T18:50:06.627Z,79.75
2019-03-02T18:53:09.925Z,79.78
2019-03-02T18:56:13.135Z,79.94
2019-03-02T18:59:16.295Z,79.99
2019-03-02T19:02:19.495Z,80.32
2019-03-02T19:05:30.003Z,80.87
2019-03-02T19:08:33.412Z,81.30
2019-03-02T19:11:36.559Z,81.29
2019-03-02T19:14:39.749Z,81.69
2019-03-02T19:17:43.241Z,81.91
2019-03-02T19:20:46.354Z,81.53
2019-03-02T19:23:49.610Z,81.84
2019-03-02T19:26:52.738Z,81.86
2019-03-02T19:29:55.922Z,81.67
2019-03-02T19:32:59.391Z,82.23
2019-03-02T19:36:02.511Z,82.31
2019-03-02T19:39:13.803Z,82.23
2019-03-02T19:42:16.950Z,82.53
2019-03-02T19:45:20.290Z,82.93
2019-03-02T19:48:23.475Z,83.43
2019-03-02T19:51:26.678Z,83.91
2019-03-02T19:54:29.899Z,84.28
2019-03-02T19:57:33.915Z,84.45
2019-03-02T20:00:37.971Z,84.51
2019-03-02T20:03:41.227Z,84.93
2019-03-02T20:06:44.404Z,85.06
2019-03-02T20:09:47.596Z,85.04
2019-03-02T20:12:50.806Z,85.34
2019-03-02T20:15:54.039Z,85.45
2019-03-02T20:18:58.397Z,85.50
2019-03-02T20:22:00.439Z,85.28
2019-03-02T20:25:03.878Z,85.64
2019-03-02T20:28:07.167Z,85.48
2019-03-02T20:31:10.302Z,85.54
2019-03-02T20:34:13.583Z,85.53
2019-03-02T20:37:16.863Z,85.74
2019-03-02T20:40:20.673Z,85.78
2019-03-02T20:43:23.897Z,85.55
2019-03-02T20:46:27.059Z,85.62
2019-03-02T20:49:30.251Z,85.94
2019-03-02T20:52:33.452Z,86.47
2019-03-02T20:55:36.643Z,86.89
2019-03-02T20:58:39.827Z,86.37
2019-03-02T21:01:42.960Z,86.38
2019-03-02T21:04:46.122Z,85.76
2019-03-02T21:07:49.216Z,85.61
2019-03-02T21:10:52.324Z,85.83
2019-03-02T21:13:55.519Z,85.72
2019-03-02T21:16:58.700Z,85.40
2019-03-02T21:20:01.912Z,85.56
2019-03-02T21:23:05.199Z,86.01
2019-03-02T21:26:08.379Z,87.74
2019-03-02T21:29:11.468Z,88.36
2019-03-02T21:32:14.663Z,88.60
2019-03-02T21:35:17.867Z,88.07
2019-03-02T21:38:21.050Z,87.89
2019-03-02T21:41:24.166Z,88.02
2019-03-02T21:44:27.347Z,88.09
2019-03-02T21:47:30.443Z,88.05
2019-03-02T21:50:33.857Z,87.90
2019-03-02T21:53:37.017Z,88.17
2019-03-02T21:56:40.107Z,88.31
2019-03-02T21:59:43.200Z,88.01
2019-03-02T22:02:46.399Z,87.76
2019-03-02T22:05:49.499Z,87.75
2019-03-02T22:08:52.691Z,87.98
2019-03-02T22:11:55.902Z,87.83
2019-03-02T22:14:59.076Z,87.69
2019-03-02T22:18:02.329Z,87.80
2019-03-02T22:21:05.575Z,87.79
2019-03-02T22:24:08.763Z,87.58
2019-03-02T22:27:11.958Z,87.93
2019-03-02T22:30:18.504Z,88.01
2019-03-02T22:33:21.627Z,87.94
2019-03-02T22:36:24.729Z,87.97
2019-03-02T22:39:27.935Z,87.85
2019-03-02T22:42:31.011Z,87.63
2019-03-02T22:45:34.219Z,87.28
2019-03-02T22:48:37.418Z,87.00
2019-03-02T22:51:40.507Z,87.37
2019-03-02T22:54:43.672Z,87.16
2019-03-02T22:57:48.535Z,87.50
2019-03-02T23:01:33.275Z,87.04
2019-03-02T23:04:36.391Z,87.30
2019-03-02T23:07:39.576Z,86.91
2019-03-02T23:10:42.824Z,86.49
2019-03-02T23:13:45.969Z,86.45
2019-03-02T23:16:49.159Z,86.24
2019-03-02T23:19:52.357Z,86.10
2019-03-02T23:22:55.563Z,86.18
2019-03-02T23:25:58.734Z,86.13
2019-03-02T23:29:01.953Z,86.32
2019-03-02T23:32:05.133Z,86.17
2019-03-02T23:35:08.334Z,85.73
2019-03-02T23:38:12.336Z,86.23
2019-03-02T23:41:15.511Z,85.72
2019-03-02T23:44:18.611Z,86.05
2019-03-02T23:47:21.724Z,86.22
2019-03-02T23:50:24.898Z,85.83
2019-03-02T23:53:28.110Z,86.14
2019-03-02T23:56:31.186Z,86.08
2019-03-02T23:59:34.297Z,85.73
